sensor_id;sensor_type;location;lat;lon;timestamp;P1;durP1;ratioP1;P2;durP2;ratioP2
16119;SDS011;12670;53.502;10.252;2022-09-21T00:02:05;9.23;;;3.43;;
16119;SDS011;12670;53.502;10.252;2022-09-21T00:05:08;6.07;;;2.93;;
16119;SDS011;12670;53.502;10.252;2022-09-21T00:08:12;6.13;;;2.90;;
16119;SDS011;12670;53.502;10.252;2022-09-21T00:11:17;6.17;;;2.97;;
16119;SDS011;12670;53.502;10.252;2022-09-21T00:14:21;5.20;;;2.90;;
16119;SDS011;12670;53.502;10.252;2022-09-21T00:17:27;6.27;;;2.70;;
16119;SDS011;12670;53.502;10.252;2022-09-21T00:20:29;9.07;;;2.77;;
16119;SDS011;12670;53.502;10.252;2022-09-21T00:23:34;7.53;;;2.83;;
16119;SDS011;12670;53.502;10.252;2022-09-21T00:26:37;7.20;;;3.20;;
16119;SDS011;12670;53.502;10.252;2022-09-21T00:29:40;9.23;;;2.90;;
16119;SDS011;12670;53.502;10.252;2022-09-21T00:32:43;5.93;;;2.83;;
16119;SDS011;12670;53.502;10.252;2022-09-21T00:35:46;5.40;;;2.43;;
16119;SDS011;12670;53.502;10.252;2022-09-21T00:38:51;8.03;;;2.70;;
16119;SDS011;12670;53.502;10.252;2022-09-21T00:41:54;4.50;;;2.30;;
16119;SDS011;12670;53.502;10.252;2022-09-21T00:44:57;7.80;;;2.57;;
16119;SDS011;12670;53.502;10.252;2022-09-21T00:48:00;6.33;;;2.57;;
16119;SDS011;12670;53.502;10.252;2022-09-21T00:51:05;6.47;;;2.40;;
16119;SDS011;12670;53.502;10.252;2022-09-21T00:54:11;5.40;;;2.43;;
16119;SDS011;12670;53.502;10.252;2022-09-21T00:57:16;6.53;;;2.77;;
16119;SDS011;12670;53.502;10.252;2022-09-21T01:00:22;5.97;;;2.90;;
16119;SDS011;12670;53.502;10.252;2022-09-21T01:03:25;8.17;;;2.63;;
16119;SDS011;12670;53.502;10.252;2022-09-21T01:06:29;7.20;;;2.67;;
16119;SDS011;12670;53.502;10.252;2022-09-21T01:09:37;5.90;;;2.90;;
16119;SDS011;12670;53.502;10.252;2022-09-21T01:12:47;4.30;;;2.57;;
16119;SDS011;12670;53.502;10.252;2022-09-21T01:15:58;6.30;;;2.80;;
16119;SDS011;12670;53.502;10.252;2022-09-21T01:19:10;10.57;;;3.00;;
16119;SDS011;12670;53.502;10.252;2022-09-21T01:22:29;10.30;;;2.97;;
16119;SDS011;12670;53.502;10.252;2022-09-21T01:25:52;8.40;;;3.20;;
16119;SDS011;12670;53.502;10.252;2022-09-21T01:29:12;7.67;;;2.80;;
16119;SDS011;12670;53.502;10.252;2022-09-21T01:32:18;5.13;;;2.60;;
16119;SDS011;12670;53.502;10.252;2022-09-21T01:35:26;8.07;;;3.03;;
16119;SDS011;12670;53.502;10.252;2022-09-21T01:38:34;9.50;;;2.97;;
16119;SDS011;12670;53.502;10.252;2022-09-21T01:41:40;6.60;;;2.50;;
16119;SDS011;12670;53.502;10.252;2022-09-21T01:44:46;5.73;;;2.90;;
16119;SDS011;12670;53.502;10.252;2022-09-21T01:47:50;6.43;;;2.87;;
16119;SDS011;12670;53.502;10.252;2022-09-21T01:50:55;9.07;;;3.10;;
16119;SDS011;12670;53.502;10.252;2022-09-21T01:54:01;6.90;;;2.63;;
16119;SDS011;12670;53.502;10.252;2022-09-21T01:57:09;4.57;;;2.47;;
16119;SDS011;12670;53.502;10.252;2022-09-21T02:00:19;6.30;;;2.43;;
16119;SDS011;12670;53.502;10.252;2022-09-21T02:03:24;9.60;;;2.70;;
16119;SDS011;12670;53.502;10.252;2022-09-21T02:06:30;7.27;;;2.93;;
16119;SDS011;12670;53.502;10.252;2022-09-21T02:09:33;6.87;;;3.10;;
16119;SDS011;12670;53.502;10.252;2022-09-21T02:12:37;6.13;;;2.80;;
16119;SDS011;12670;53.502;10.252;2022-09-21T02:15:45;4.57;;;2.57;;
16119;SDS011;12670;53.502;10.252;2022-09-21T02:19:00;5.17;;;2.50;;
16119;SDS011;12670;53.502;10.252;2022-09-21T02:22:12;5.90;;;2.80;;
16119;SDS011;12670;53.502;10.252;2022-09-21T02:25:20;6.80;;;2.77;;
16119;SDS011;12670;53.502;10.252;2022-09-21T02:28:34;6.63;;;3.20;;
16119;SDS011;12670;53.502;10.252;2022-09-21T02:31:47;7.30;;;2.80;;
16119;SDS011;12670;53.502;10.252;2022-09-21T02:34:57;5.57;;;2.60;;
16119;SDS011;12670;53.502;10.252;2022-09-21T02:38:06;6.93;;;2.60;;
16119;SDS011;12670;53.502;10.252;2022-09-21T02:41:13;6.13;;;2.50;;
16119;SDS011;12670;53.502;10.252;2022-09-21T02:44:21;7.83;;;3.20;;
16119;SDS011;12670;53.502;10.252;2022-09-21T02:47:35;6.20;;;2.67;;
16119;SDS011;12670;53.502;10.252;2022-09-21T02:50:43;7.07;;;2.63;;
16119;SDS011;12670;53.502;10.252;2022-09-21T02:53:48;8.07;;;2.57;;
16119;SDS011;12670;53.502;10.252;2022-09-21T02:56:54;7.17;;;2.67;;
16119;SDS011;12670;53.502;10.252;2022-09-21T02:59:59;3.23;;;2.20;;
16119;SDS011;12670;53.502;10.252;2022-09-21T03:03:14;4.27;;;2.10;;
16119;SDS011;12670;53.502;10.252;2022-09-21T03:06:18;7.27;;;2.40;;
16119;SDS011;12670;53.502;10.252;2022-09-21T03:09:20;7.83;;;2.50;;
16119;SDS011;12670;53.502;10.252;2022-09-21T03:12:24;5.00;;;2.70;;
16119;SDS011;12670;53.502;10.252;2022-09-21T03:15:27;4.37;;;2.67;;
16119;SDS011;12670;53.502;10.252;2022-09-21T03:18:31;5.73;;;2.47;;
16119;SDS011;12670;53.502;10.252;2022-09-21T03:21:35;6.40;;;2.57;;
16119;SDS011;12670;53.502;10.252;2022-09-21T03:24:43;8.47;;;2.80;;
16119;SDS011;12670;53.502;10.252;2022-09-21T03:27:46;5.90;;;2.63;;
16119;SDS011;12670;53.502;10.252;2022-09-21T03:30:49;5.43;;;2.67;;
16119;SDS011;12670;53.502;10.252;2022-09-21T03:33:54;6.00;;;2.90;;
16119;SDS011;12670;53.502;10.252;2022-09-21T03:36:56;7.50;;;2.90;;
16119;SDS011;12670;53.502;10.252;2022-09-21T03:39:59;7.80;;;3.10;;
16119;SDS011;12670;53.502;10.252;2022-09-21T03:43:02;9.37;;;2.97;;
16119;SDS011;12670;53.502;10.252;2022-09-21T03:46:05;5.37;;;2.73;;
16119;SDS011;12670;53.502;10.252;2022-09-21T03:49:09;8.70;;;2.70;;
16119;SDS011;12670;53.502;10.252;2022-09-21T03:52:11;8.17;;;3.27;;
16119;SDS011;12670;53.502;10.252;2022-09-21T03:55:14;8.10;;;3.00;;
16119;SDS011;12670;53.502;10.252;2022-09-21T03:58:17;9.57;;;2.73;;
16119;SDS011;12670;53.502;10.252;2022-09-21T04:01:20;11.37;;;3.03;;
16119;SDS011;12670;53.502;10.252;2022-09-21T04:04:24;9.00;;;3.17;;
16119;SDS011;12670;53.502;10.252;2022-09-21T04:07:29;7.47;;;2.87;;
16119;SDS011;12670;53.502;10.252;2022-09-21T04:10:32;7.97;;;2.97;;
16119;SDS011;12670;53.502;10.252;2022-09-21T04:13:34;7.10;;;3.20;;
16119;SDS011;12670;53.502;10.252;2022-09-21T04:16:37;6.60;;;2.87;;
16119;SDS011;12670;53.502;10.252;2022-09-21T04:19:41;6.10;;;3.00;;
16119;SDS011;12670;53.502;10.252;2022-09-21T04:22:45;6.50;;;2.83;;
16119;SDS011;12670;53.502;10.252;2022-09-21T04:25:47;7.87;;;3.30;;
16119;SDS011;12670;53.502;10.252;2022-09-21T04:28:51;8.37;;;2.80;;
16119;SDS011;12670;53.502;10.252;2022-09-21T04:31:55;6.30;;;3.03;;
16119;SDS011;12670;53.502;10.252;2022-09-21T04:34:59;5.33;;;2.70;;
16119;SDS011;12670;53.502;10.252;2022-09-21T04:38:02;6.47;;;2.90;;
16119;SDS011;12670;53.502;10.252;2022-09-21T04:41:04;6.70;;;2.60;;
16119;SDS011;12670;53.502;10.252;2022-09-21T04:44:07;7.23;;;2.73;;
16119;SDS011;12670;53.502;10.252;2022-09-21T04:47:09;5.63;;;2.87;;
16119;SDS011;12670;53.502;10.252;2022-09-21T04:50:13;15.47;;;2.60;;
16119;SDS011;12670;53.502;10.252;2022-09-21T04:53:16;5.03;;;2.20;;
16119;SDS011;12670;53.502;10.252;2022-09-21T04:56:19;11.00;;;2.53;;
16119;SDS011;12670;53.502;10.252;2022-09-21T04:59:22;6.67;;;2.63;;
16119;SDS011;12670;53.502;10.252;2022-09-21T05:02:24;8.37;;;2.90;;
16119;SDS011;12670;53.502;10.252;2022-09-21T05:05:28;8.43;;;3.00;;
16119;SDS011;12670;53.502;10.252;2022-09-21T05:08:32;7.27;;;3.00;;
16119;SDS011;12670;53.502;10.252;2022-09-21T05:11:54;6.90;;;2.80;;
16119;SDS011;12670;53.502;10.252;2022-09-21T05:14:56;7.90;;;2.80;;
16119;SDS011;12670;53.502;10.252;2022-09-21T05:17:59;5.50;;;2.80;;
16119;SDS011;12670;53.502;10.252;2022-09-21T05:21:03;10.93;;;3.00;;
16119;SDS011;12670;53.502;10.252;2022-09-21T05:24:07;7.63;;;3.07;;
16119;SDS011;12670;53.502;10.252;2022-09-21T05:27:10;7.73;;;3.07;;
16119;SDS011;12670;53.502;10.252;2022-09-21T05:30:13;8.63;;;3.00;;
16119;SDS011;12670;53.502;10.252;2022-09-21T05:33:17;9.30;;;3.00;;
16119;SDS011;12670;53.502;10.252;2022-09-21T05:36:28;9.20;;;3.20;;
16119;SDS011;12670;53.502;10.252;2022-09-21T05:39:39;4.80;;;2.40;;
16119;SDS011;12670;53.502;10.252;2022-09-21T05:42:43;9.53;;;2.77;;
16119;SDS011;12670;53.502;10.252;2022-09-21T05:45:48;14.20;;;3.90;;
16119;SDS011;12670;53.502;10.252;2022-09-21T05:48:57;12.27;;;3.10;;
16119;SDS011;12670;53.502;10.252;2022-09-21T05:52:07;8.33;;;2.70;;
16119;SDS011;12670;53.502;10.252;2022-09-21T05:55:20;5.60;;;2.80;;
16119;SDS011;12670;53.502;10.252;2022-09-21T05:58:32;6.60;;;2.90;;
16119;SDS011;12670;53.502;10.252;2022-09-21T06:01:43;5.00;;;2.63;;
16119;SDS011;12670;53.502;10.252;2022-09-21T06:04:57;11.50;;;3.03;;
16119;SDS011;12670;53.502;10.252;2022-09-21T06:08:03;9.17;;;3.03;;
16119;SDS011;12670;53.502;10.252;2022-09-21T06:11:06;7.97;;;3.70;;
16119;SDS011;12670;53.502;10.252;2022-09-21T06:14:08;12.30;;;4.83;;
16119;SDS011;12670;53.502;10.252;2022-09-21T06:17:11;10.87;;;5.40;;
16119;SDS011;12670;53.502;10.252;2022-09-21T06:20:13;9.03;;;5.10;;
16119;SDS011;12670;53.502;10.252;2022-09-21T06:23:17;12.37;;;4.47;;
16119;SDS011;12670;53.502;10.252;2022-09-21T06:26:20;10.33;;;4.20;;
16119;SDS011;12670;53.502;10.252;2022-09-21T06:29:22;11.00;;;4.90;;
16119;SDS011;12670;53.502;10.252;2022-09-21T06:32:25;18.00;;;5.83;;
16119;SDS011;12670;53.502;10.252;2022-09-21T06:35:28;8.17;;;5.03;;
16119;SDS011;12670;53.502;10.252;2022-09-21T06:38:32;12.27;;;5.10;;
16119;SDS011;12670;53.502;10.252;2022-09-21T06:41:35;10.10;;;5.43;;
16119;SDS011;12670;53.502;10.252;2022-09-21T06:44:38;8.07;;;4.90;;
16119;SDS011;12670;53.502;10.252;2022-09-21T06:47:45;8.93;;;4.90;;
16119;SDS011;12670;53.502;10.252;2022-09-21T06:50:48;8.87;;;4.77;;
16119;SDS011;12670;53.502;10.252;2022-09-21T06:53:54;13.83;;;5.50;;
16119;SDS011;12670;53.502;10.252;2022-09-21T06:56:57;9.50;;;5.33;;
16119;SDS011;12670;53.502;10.252;2022-09-21T07:00:00;11.40;;;6.00;;
16119;SDS011;12670;53.502;10.252;2022-09-21T07:03:03;10.73;;;6.70;;
16119;SDS011;12670;53.502;10.252;2022-09-21T07:06:06;13.43;;;7.00;;
16119;SDS011;12670;53.502;10.252;2022-09-21T07:09:10;15.03;;;6.57;;
16119;SDS011;12670;53.502;10.252;2022-09-21T07:12:33;12.90;;;6.73;;
16119;SDS011;12670;53.502;10.252;2022-09-21T07:15:36;11.80;;;6.47;;
16119;SDS011;12670;53.502;10.252;2022-09-21T07:18:39;14.70;;;7.07;;
16119;SDS011;12670;53.502;10.252;2022-09-21T07:21:44;17.37;;;9.43;;
16119;SDS011;12670;53.502;10.252;2022-09-21T07:24:48;15.27;;;8.27;;
16119;SDS011;12670;53.502;10.252;2022-09-21T07:27:51;21.77;;;8.90;;
16119;SDS011;12670;53.502;10.252;2022-09-21T07:30:53;16.47;;;8.40;;
16119;SDS011;12670;53.502;10.252;2022-09-21T07:33:56;16.97;;;7.47;;
16119;SDS011;12670;53.502;10.252;2022-09-21T07:36:59;17.30;;;7.47;;
16119;SDS011;12670;53.502;10.252;2022-09-21T07:40:03;15.07;;;7.33;;
16119;SDS011;12670;53.502;10.252;2022-09-21T07:43:06;15.03;;;7.20;;
16119;SDS011;12670;53.502;10.252;2022-09-21T07:46:09;13.53;;;6.00;;
16119;SDS011;12670;53.502;10.252;2022-09-21T07:49:14;12.73;;;6.30;;
16119;SDS011;12670;53.502;10.252;2022-09-21T07:52:17;13.70;;;6.03;;
16119;SDS011;12670;53.502;10.252;2022-09-21T07:55:20;12.90;;;5.93;;
16119;SDS011;12670;53.502;10.252;2022-09-21T07:58:23;12.60;;;5.70;;
16119;SDS011;12670;53.502;10.252;2022-09-21T08:01:43;12.77;;;5.50;;
16119;SDS011;12670;53.502;10.252;2022-09-21T08:04:45;9.83;;;5.00;;
16119;SDS011;12670;53.502;10.252;2022-09-21T08:07:48;11.87;;;5.33;;
16119;SDS011;12670;53.502;10.252;2022-09-21T08:10:52;15.83;;;5.27;;
16119;SDS011;12670;53.502;10.252;2022-09-21T08:13:56;13.20;;;4.93;;
16119;SDS011;12670;53.502;10.252;2022-09-21T08:17:01;11.63;;;4.53;;
16119;SDS011;12670;53.502;10.252;2022-09-21T08:20:04;8.13;;;4.50;;
16119;SDS011;12670;53.502;10.252;2022-09-21T08:23:07;10.70;;;4.40;;
16119;SDS011;12670;53.502;10.252;2022-09-21T08:26:12;11.93;;;4.23;;
16119;SDS011;12670;53.502;10.252;2022-09-21T08:29:19;7.07;;;3.90;;
16119;SDS011;12670;53.502;10.252;2022-09-21T08:32:22;6.97;;;3.50;;
16119;SDS011;12670;53.502;10.252;2022-09-21T08:35:50;14.33;;;5.10;;
16119;SDS011;12670;53.502;10.252;2022-09-21T08:38:53;5.33;;;3.17;;
16119;SDS011;12670;53.502;10.252;2022-09-21T08:42:02;6.93;;;2.60;;
16119;SDS011;12670;53.502;10.252;2022-09-21T08:45:15;6.93;;;2.70;;
16119;SDS011;12670;53.502;10.252;2022-09-21T08:48:21;5.87;;;2.60;;
16119;SDS011;12670;53.502;10.252;2022-09-21T08:51:33;4.67;;;2.20;;
16119;SDS011;12670;53.502;10.252;2022-09-21T08:54:41;6.13;;;2.77;;
16119;SDS011;12670;53.502;10.252;2022-09-21T08:57:50;5.10;;;2.80;;
16119;SDS011;12670;53.502;10.252;2022-09-21T09:00:56;7.67;;;3.10;;
16119;SDS011;12670;53.502;10.252;2022-09-21T09:04:25;4.47;;;2.57;;
16119;SDS011;12670;53.502;10.252;2022-09-21T09:07:46;6.53;;;2.10;;
16119;SDS011;12670;53.502;10.252;2022-09-21T09:11:04;6.70;;;2.13;;
16119;SDS011;12670;53.502;10.252;2022-09-21T09:14:21;6.43;;;2.60;;
16119;SDS011;12670;53.502;10.252;2022-09-21T09:17:41;5.43;;;2.20;;
16119;SDS011;12670;53.502;10.252;2022-09-21T09:20:52;5.23;;;2.23;;
16119;SDS011;12670;53.502;10.252;2022-09-21T09:23:59;6.47;;;2.40;;
16119;SDS011;12670;53.502;10.252;2022-09-21T09:27:06;3.77;;;1.80;;
16119;SDS011;12670;53.502;10.252;2022-09-21T09:30:17;3.07;;;1.90;;
16119;SDS011;12670;53.502;10.252;2022-09-21T09:33:22;4.70;;;2.07;;
16119;SDS011;12670;53.502;10.252;2022-09-21T09:36:29;3.13;;;1.57;;
16119;SDS011;12670;53.502;10.252;2022-09-21T09:39:54;3.67;;;1.87;;
16119;SDS011;12670;53.502;10.252;2022-09-21T09:42:59;3.30;;;1.70;;
16119;SDS011;12670;53.502;10.252;2022-09-21T09:46:11;5.83;;;1.77;;
16119;SDS011;12670;53.502;10.252;2022-09-21T09:49:25;2.77;;;2.00;;
16119;SDS011;12670;53.502;10.252;2022-09-21T09:52:35;5.83;;;1.87;;
16119;SDS011;12670;53.502;10.252;2022-09-21T09:55:38;3.83;;;1.40;;
16119;SDS011;12670;53.502;10.252;2022-09-21T09:58:44;6.33;;;1.60;;
16119;SDS011;12670;53.502;10.252;2022-09-21T10:01:59;8.30;;;1.83;;
16119;SDS011;12670;53.502;10.252;2022-09-21T10:05:04;9.77;;;1.60;;
16119;SDS011;12670;53.502;10.252;2022-09-21T10:08:12;6.43;;;1.70;;
16119;SDS011;12670;53.502;10.252;2022-09-21T10:11:33;3.23;;;1.20;;
16119;SDS011;12670;53.502;10.252;2022-09-21T10:14:38;1.77;;;1.10;;
16119;SDS011;12670;53.502;10.252;2022-09-21T10:17:42;4.60;;;1.33;;
16119;SDS011;12670;53.502;10.252;2022-09-21T10:20:53;1.87;;;1.00;;
16119;SDS011;12670;53.502;10.252;2022-09-21T10:23:58;2.23;;;1.13;;
16119;SDS011;12670;53.502;10.252;2022-09-21T10:27:03;4.07;;;1.20;;
16119;SDS011;12670;53.502;10.252;2022-09-21T10:30:19;2.77;;;1.30;;
16119;SDS011;12670;53.502;10.252;2022-09-21T10:33:35;3.35;;;1.13;;
16119;SDS011;12670;53.502;10.252;2022-09-21T10:36:51;2.87;;;1.13;;
16119;SDS011;12670;53.502;10.252;2022-09-21T10:39:56;2.88;;;0.98;;
16119;SDS011;12670;53.502;10.252;2022-09-21T10:42:58;3.30;;;1.00;;
16119;SDS011;12670;53.502;10.252;2022-09-21T10:46:01;1.90;;;1.07;;
16119;SDS011;12670;53.502;10.252;2022-09-21T10:49:10;3.00;;;0.90;;
16119;SDS011;12670;53.502;10.252;2022-09-21T10:52:17;2.23;;;0.90;;
16119;SDS011;12670;53.502;10.252;2022-09-21T10:55:22;4.57;;;1.00;;
16119;SDS011;12670;53.502;10.252;2022-09-21T10:58:26;2.23;;;1.03;;
16119;SDS011;12670;53.502;10.252;2022-09-21T11:01:29;1.13;;;0.80;;
16119;SDS011;12670;53.502;10.252;2022-09-21T11:04:38;2.90;;;1.30;;
16119;SDS011;12670;53.502;10.252;2022-09-21T11:07:46;2.92;;;1.00;;
16119;SDS011;12670;53.502;10.252;2022-09-21T11:11:02;3.70;;;1.00;;
16119;SDS011;12670;53.502;10.252;2022-09-21T11:14:15;2.80;;;1.00;;
16119;SDS011;12670;53.502;10.252;2022-09-21T11:17:29;1.45;;;1.10;;
16119;SDS011;12670;53.502;10.252;2022-09-21T11:20:40;1.45;;;0.80;;
16119;SDS011;12670;53.502;10.252;2022-09-21T11:23:51;2.08;;;1.00;;
16119;SDS011;12670;53.502;10.252;2022-09-21T11:27:02;3.95;;;1.23;;
16119;SDS011;12670;53.502;10.252;2022-09-21T11:30:10;4.38;;;1.20;;
16119;SDS011;12670;53.502;10.252;2022-09-21T11:33:17;1.75;;;0.80;;
16119;SDS011;12670;53.502;10.252;2022-09-21T11:36:35;1.98;;;1.08;;
16119;SDS011;12670;53.502;10.252;2022-09-21T11:39:51;1.55;;;0.93;;
16119;SDS011;12670;53.502;10.252;2022-09-21T11:43:06;4.43;;;0.93;;
16119;SDS011;12670;53.502;10.252;2022-09-21T11:46:19;1.63;;;1.00;;
16119;SDS011;12670;53.502;10.252;2022-09-21T11:49:33;2.50;;;0.90;;
16119;SDS011;12670;53.502;10.252;2022-09-21T11:52:52;2.30;;;1.20;;
16119;SDS011;12670;53.502;10.252;2022-09-21T11:56:13;1.05;;;0.80;;
16119;SDS011;12670;53.502;10.252;2022-09-21T11:59:42;2.25;;;0.98;;
16119;SDS011;12670;53.502;10.252;2022-09-21T12:06:27;2.63;;;0.98;;
16119;SDS011;12670;53.502;10.252;2022-09-21T12:09:45;5.13;;;1.30;;
16119;SDS011;12670;53.502;10.252;2022-09-21T12:12:59;2.35;;;0.80;;
16119;SDS011;12670;53.502;10.252;2022-09-21T12:16:09;3.83;;;1.17;;
16119;SDS011;12670;53.502;10.252;2022-09-21T12:19:20;3.10;;;0.75;;
16119;SDS011;12670;53.502;10.252;2022-09-21T12:22:30;2.35;;;0.80;;
16119;SDS011;12670;53.502;10.252;2022-09-21T12:25:39;1.17;;;0.70;;
16119;SDS011;12670;53.502;10.252;2022-09-21T12:28:46;1.00;;;0.80;;
16119;SDS011;12670;53.502;10.252;2022-09-21T12:31:55;1.58;;;0.70;;
16119;SDS011;12670;53.502;10.252;2022-09-21T12:35:03;2.08;;;0.70;;
16119;SDS011;12670;53.502;10.252;2022-09-21T12:38:14;8.27;;;0.90;;
16119;SDS011;12670;53.502;10.252;2022-09-21T12:41:21;5.05;;;0.77;;
16119;SDS011;12670;53.502;10.252;2022-09-21T12:44:33;1.00;;;0.60;;
16119;SDS011;12670;53.502;10.252;2022-09-21T12:47:54;1.60;;;0.60;;
16119;SDS011;12670;53.502;10.252;2022-09-21T12:51:02;0.98;;;0.80;;
16119;SDS011;12670;53.502;10.252;2022-09-21T12:54:14;4.10;;;0.80;;
16119;SDS011;12670;53.502;10.252;2022-09-21T12:57:31;1.50;;;0.77;;
16119;SDS011;12670;53.502;10.252;2022-09-21T13:01:04;0.85;;;0.70;;
16119;SDS011;12670;53.502;10.252;2022-09-21T13:04:29;2.25;;;0.85;;
16119;SDS011;12670;53.502;10.252;2022-09-21T13:08:02;4.28;;;1.00;;
16119;SDS011;12670;53.502;10.252;2022-09-21T13:11:09;0.93;;;0.60;;
16119;SDS011;12670;53.502;10.252;2022-09-21T13:14:13;3.17;;;0.60;;
16119;SDS011;12670;53.502;10.252;2022-09-21T13:17:19;1.92;;;0.70;;
16119;SDS011;12670;53.502;10.252;2022-09-21T13:20:24;1.45;;;0.63;;
16119;SDS011;12670;53.502;10.252;2022-09-21T13:23:30;2.30;;;0.70;;
16119;SDS011;12670;53.502;10.252;2022-09-21T13:26:40;2.13;;;0.70;;
16119;SDS011;12670;53.502;10.252;2022-09-21T13:29:46;1.13;;;0.50;;
16119;SDS011;12670;53.502;10.252;2022-09-21T13:33:31;1.45;;;0.70;;
16119;SDS011;12670;53.502;10.252;2022-09-21T13:36:39;0.90;;;0.60;;
16119;SDS011;12670;53.502;10.252;2022-09-21T13:39:44;3.25;;;0.70;;
16119;SDS011;12670;53.502;10.252;2022-09-21T13:42:49;1.20;;;0.52;;
16119;SDS011;12670;53.502;10.252;2022-09-21T13:45:56;1.95;;;0.70;;
16119;SDS011;12670;53.502;10.252;2022-09-21T13:49:03;2.15;;;0.77;;
16119;SDS011;12670;53.502;10.252;2022-09-21T13:52:20;2.38;;;0.70;;
16119;SDS011;12670;53.502;10.252;2022-09-21T13:55:39;1.37;;;0.90;;
16119;SDS011;12670;53.502;10.252;2022-09-21T13:58:51;3.30;;;0.90;;
16119;SDS011;12670;53.502;10.252;2022-09-21T14:01:58;2.80;;;0.77;;
16119;SDS011;12670;53.502;10.252;2022-09-21T14:05:05;1.20;;;0.77;;
16119;SDS011;12670;53.502;10.252;2022-09-21T14:08:17;1.23;;;0.77;;
16119;SDS011;12670;53.502;10.252;2022-09-21T14:11:27;2.37;;;0.90;;
16119;SDS011;12670;53.502;10.252;2022-09-21T14:14:34;2.23;;;1.00;;
16119;SDS011;12670;53.502;10.252;2022-09-21T14:17:39;5.10;;;1.00;;
16119;SDS011;12670;53.502;10.252;2022-09-21T14:20:51;2.50;;;0.80;;
16119;SDS011;12670;53.502;10.252;2022-09-21T14:27:38;1.17;;;0.60;;
16119;SDS011;12670;53.502;10.252;2022-09-21T14:30:50;3.50;;;0.80;;
16119;SDS011;12670;53.502;10.252;2022-09-21T14:33:59;1.10;;;0.60;;
16119;SDS011;12670;53.502;10.252;2022-09-21T14:37:08;2.90;;;0.80;;
16119;SDS011;12670;53.502;10.252;2022-09-21T14:40:20;1.43;;;0.60;;
16119;SDS011;12670;53.502;10.252;2022-09-21T14:43:26;2.20;;;0.70;;
16119;SDS011;12670;53.502;10.252;2022-09-21T14:46:46;2.40;;;0.57;;
16119;SDS011;12670;53.502;10.252;2022-09-21T14:50:00;2.47;;;0.70;;
16119;SDS011;12670;53.502;10.252;2022-09-21T14:53:30;0.50;;;0.50;;
16119;SDS011;12670;53.502;10.252;2022-09-21T14:56:47;1.90;;;0.80;;
16119;SDS011;12670;53.502;10.252;2022-09-21T15:00:02;0.70;;;0.60;;
16119;SDS011;12670;53.502;10.252;2022-09-21T15:03:21;1.97;;;0.70;;
16119;SDS011;12670;53.502;10.252;2022-09-21T15:06:40;5.40;;;0.77;;
16119;SDS011;12670;53.502;10.252;2022-09-21T15:10:12;2.60;;;0.70;;
16119;SDS011;12670;53.502;10.252;2022-09-21T15:17:22;3.93;;;0.70;;
16119;SDS011;12670;53.502;10.252;2022-09-21T15:20:26;7.77;;;1.33;;
16119;SDS011;12670;53.502;10.252;2022-09-21T15:23:32;3.37;;;0.70;;
16119;SDS011;12670;53.502;10.252;2022-09-21T15:26:36;3.43;;;0.60;;
16119;SDS011;12670;53.502;10.252;2022-09-21T15:29:41;1.30;;;1.00;;
16119;SDS011;12670;53.502;10.252;2022-09-21T15:32:50;2.90;;;0.80;;
16119;SDS011;12670;53.502;10.252;2022-09-21T15:35:55;0.97;;;0.70;;
16119;SDS011;12670;53.502;10.252;2022-09-21T15:39:04;1.20;;;0.90;;
16119;SDS011;12670;53.502;10.252;2022-09-21T15:42:12;2.03;;;0.73;;
16119;SDS011;12670;53.502;10.252;2022-09-21T15:45:22;5.43;;;0.80;;
16119;SDS011;12670;53.502;10.252;2022-09-21T15:48:28;1.90;;;0.70;;
16119;SDS011;12670;53.502;10.252;2022-09-21T15:51:34;1.97;;;0.73;;
16119;SDS011;12670;53.502;10.252;2022-09-21T15:54:43;1.70;;;0.80;;
16119;SDS011;12670;53.502;10.252;2022-09-21T15:57:49;1.50;;;1.03;;
16119;SDS011;12670;53.502;10.252;2022-09-21T16:00:56;2.13;;;1.10;;
16119;SDS011;12670;53.502;10.252;2022-09-21T16:04:03;4.93;;;1.00;;
16119;SDS011;12670;53.502;10.252;2022-09-21T16:07:21;5.93;;;1.10;;
16119;SDS011;12670;53.502;10.252;2022-09-21T16:10:35;6.67;;;0.90;;
16119;SDS011;12670;53.502;10.252;2022-09-21T16:13:40;6.73;;;1.10;;
16119;SDS011;12670;53.502;10.252;2022-09-21T16:20:39;15.40;;;1.80;;
16119;SDS011;12670;53.502;10.252;2022-09-21T16:23:43;5.20;;;1.40;;
16119;SDS011;12670;53.502;10.252;2022-09-21T16:26:55;2.23;;;0.73;;
16119;SDS011;12670;53.502;10.252;2022-09-21T16:29:59;4.20;;;0.90;;
16119;SDS011;12670;53.502;10.252;2022-09-21T16:33:02;1.67;;;0.87;;
16119;SDS011;12670;53.502;10.252;2022-09-21T16:36:43;12.13;;;1.30;;
16119;SDS011;12670;53.502;10.252;2022-09-21T16:39:46;13.57;;;1.87;;
16119;SDS011;12670;53.502;10.252;2022-09-21T16:42:50;3.97;;;1.10;;
16119;SDS011;12670;53.502;10.252;2022-09-21T16:45:53;7.37;;;1.90;;
16119;SDS011;12670;53.502;10.252;2022-09-21T16:48:56;3.00;;;1.40;;
16119;SDS011;12670;53.502;10.252;2022-09-21T16:52:01;6.30;;;1.43;;
16119;SDS011;12670;53.502;10.252;2022-09-21T16:55:04;5.57;;;0.80;;
16119;SDS011;12670;53.502;10.252;2022-09-21T16:58:08;3.97;;;1.30;;
16119;SDS011;12670;53.502;10.252;2022-09-21T17:01:12;7.20;;;1.63;;
16119;SDS011;12670;53.502;10.252;2022-09-21T17:04:16;12.97;;;2.47;;
16119;SDS011;12670;53.502;10.252;2022-09-21T17:07:19;16.77;;;2.37;;
16119;SDS011;12670;53.502;10.252;2022-09-21T17:10:22;10.30;;;1.07;;
16119;SDS011;12670;53.502;10.252;2022-09-21T17:13:30;5.43;;;0.90;;
16119;SDS011;12670;53.502;10.252;2022-09-21T17:16:33;5.20;;;0.70;;
16119;SDS011;12670;53.502;10.252;2022-09-21T17:19:37;2.20;;;1.00;;
16119;SDS011;12670;53.502;10.252;2022-09-21T17:22:42;2.73;;;1.40;;
16119;SDS011;12670;53.502;10.252;2022-09-21T17:25:45;7.20;;;3.40;;
16119;SDS011;12670;53.502;10.252;2022-09-21T17:28:49;8.10;;;4.07;;
16119;SDS011;12670;53.502;10.252;2022-09-21T17:31:54;12.13;;;3.80;;
16119;SDS011;12670;53.502;10.252;2022-09-21T17:34:58;9.73;;;2.53;;
16119;SDS011;12670;53.502;10.252;2022-09-21T17:38:13;7.37;;;2.33;;
16119;SDS011;12670;53.502;10.252;2022-09-21T17:41:19;15.43;;;3.23;;
16119;SDS011;12670;53.502;10.252;2022-09-21T17:44:33;16.13;;;2.50;;
16119;SDS011;12670;53.502;10.252;2022-09-21T17:47:45;7.63;;;2.57;;
16119;SDS011;12670;53.502;10.252;2022-09-21T17:50:50;11.00;;;3.60;;
16119;SDS011;12670;53.502;10.252;2022-09-21T17:53:53;6.57;;;3.27;;
16119;SDS011;12670;53.502;10.252;2022-09-21T17:56:57;6.37;;;3.60;;
16119;SDS011;12670;53.502;10.252;2022-09-21T18:00:10;10.10;;;4.63;;
16119;SDS011;12670;53.502;10.252;2022-09-21T18:03:16;11.47;;;4.67;;
16119;SDS011;12670;53.502;10.252;2022-09-21T18:06:22;13.73;;;6.50;;
16119;SDS011;12670;53.502;10.252;2022-09-21T18:09:26;11.87;;;6.07;;
16119;SDS011;12670;53.502;10.252;2022-09-21T18:12:54;14.10;;;7.30;;
16119;SDS011;12670;53.502;10.252;2022-09-21T18:16:13;13.97;;;6.70;;
16119;SDS011;12670;53.502;10.252;2022-09-21T18:19:37;14.77;;;5.50;;
16119;SDS011;12670;53.502;10.252;2022-09-21T18:22:52;7.50;;;4.00;;
16119;SDS011;12670;53.502;10.252;2022-09-21T18:26:00;7.20;;;4.20;;
16119;SDS011;12670;53.502;10.252;2022-09-21T18:29:03;8.80;;;4.23;;
16119;SDS011;12670;53.502;10.252;2022-09-21T18:32:32;9.10;;;4.13;;
16119;SDS011;12670;53.502;10.252;2022-09-21T18:35:50;7.80;;;4.57;;
16119;SDS011;12670;53.502;10.252;2022-09-21T18:39:03;7.40;;;4.03;;
16119;SDS011;12670;53.502;10.252;2022-09-21T18:42:22;14.03;;;5.03;;
16119;SDS011;12670;53.502;10.252;2022-09-21T18:45:41;12.70;;;5.03;;
16119;SDS011;12670;53.502;10.252;2022-09-21T18:48:51;9.27;;;4.47;;
16119;SDS011;12670;53.502;10.252;2022-09-21T18:52:00;9.33;;;4.67;;